sensor_id;sensor_type;location;lat;lon;timestamp;P1;durP1;ratioP1;P2;durP2;ratioP2
74152;SDS011;62505;46.070;14.492;2023-05-08T00:02:14;4.82;;;3.20;;
74152;SDS011;62505;46.070;14.492;2023-05-08T00:04:41;3.10;;;2.80;;
74152;SDS011;62505;46.070;14.492;2023-05-08T00:07:09;4.25;;;3.50;;
74152;SDS011;62505;46.070;14.492;2023-05-08T00:09:36;3.65;;;3.35;;
74152;SDS011;62505;46.070;14.492;2023-05-08T00:12:03;3.65;;;3.00;;
74152;SDS011;62505;46.070;14.492;2023-05-08T00:14:30;3.35;;;3.05;;
74152;SDS011;62505;46.070;14.492;2023-05-08T00:16:57;4.78;;;3.00;;
74152;SDS011;62505;46.070;14.492;2023-05-08T00:19:26;3.60;;;2.95;;
74152;SDS011;62505;46.070;14.492;2023-05-08T00:21:53;3.20;;;2.90;;
74152;SDS011;62505;46.070;14.492;2023-05-08T00:24:21;2.95;;;2.67;;
74152;SDS011;62505;46.070;14.492;2023-05-08T00:26:48;3.00;;;2.80;;
74152;SDS011;62505;46.070;14.492;2023-05-08T00:29:14;3.38;;;3.08;;
74152;SDS011;62505;46.070;14.492;2023-05-08T00:31:41;2.65;;;2.45;;
74152;SDS011;62505;46.070;14.492;2023-05-08T00:34:08;3.67;;;3.38;;
74152;SDS011;62505;46.070;14.492;2023-05-08T00:36:35;3.15;;;2.67;;
74152;SDS011;62505;46.070;14.492;2023-05-08T00:39:02;3.35;;;2.92;;
74152;SDS011;62505;46.070;14.492;2023-05-08T00:41:30;3.65;;;2.72;;
74152;SDS011;62505;46.070;14.492;2023-05-08T00:43:57;3.28;;;2.83;;
74152;SDS011;62505;46.070;14.492;2023-05-08T00:46:24;3.30;;;3.00;;
74152;SDS011;62505;46.070;14.492;2023-05-08T00:48:51;2.92;;;2.70;;
74152;SDS011;62505;46.070;14.492;2023-05-08T00:51:18;3.13;;;2.70;;
74152;SDS011;62505;46.070;14.492;2023-05-08T00:53:46;3.65;;;3.22;;
74152;SDS011;62505;46.070;14.492;2023-05-08T00:56:14;2.92;;;2.72;;
74152;SDS011;62505;46.070;14.492;2023-05-08T00:58:43;3.80;;;2.88;;
74152;SDS011;62505;46.070;14.492;2023-05-08T01:01:10;3.10;;;2.80;;
74152;SDS011;62505;46.070;14.492;2023-05-08T01:03:37;3.42;;;2.88;;
74152;SDS011;62505;46.070;14.492;2023-05-08T01:06:05;3.13;;;2.70;;
74152;SDS011;62505;46.070;14.492;2023-05-08T01:08:32;2.70;;;2.50;;
74152;SDS011;62505;46.070;14.492;2023-05-08T01:11:01;3.05;;;2.65;;
74152;SDS011;62505;46.070;14.492;2023-05-08T01:13:37;2.97;;;2.78;;
74152;SDS011;62505;46.070;14.492;2023-05-08T01:16:13;3.45;;;3.00;;
74152;SDS011;62505;46.070;14.492;2023-05-08T01:18:43;2.78;;;2.58;;
74152;SDS011;62505;46.070;14.492;2023-05-08T01:21:16;3.13;;;2.80;;
74152;SDS011;62505;46.070;14.492;2023-05-08T01:23:55;4.28;;;2.80;;
74152;SDS011;62505;46.070;14.492;2023-05-08T01:26:56;2.95;;;2.63;;
74152;SDS011;62505;46.070;14.492;2023-05-08T01:30:10;3.33;;;3.03;;
74152;SDS011;62505;46.070;14.492;2023-05-08T01:33:00;2.85;;;2.60;;
74152;SDS011;62505;46.070;14.492;2023-05-08T01:35:33;3.25;;;2.95;;
74152;SDS011;62505;46.070;14.492;2023-05-08T01:38:09;3.17;;;2.88;;
74152;SDS011;62505;46.070;14.492;2023-05-08T01:40:43;2.75;;;2.53;;
74152;SDS011;62505;46.070;14.492;2023-05-08T01:43:18;3.63;;;2.50;;
74152;SDS011;62505;46.070;14.492;2023-05-08T01:45:51;3.88;;;3.22;;
74152;SDS011;62505;46.070;14.492;2023-05-08T01:48:23;2.95;;;2.30;;
74152;SDS011;62505;46.070;14.492;2023-05-08T01:50:57;2.55;;;2.35;;
74152;SDS011;62505;46.070;14.492;2023-05-08T01:53:29;3.22;;;2.92;;
74152;SDS011;62505;46.070;14.492;2023-05-08T01:56:00;2.90;;;2.60;;
74152;SDS011;62505;46.070;14.492;2023-05-08T01:58:33;3.03;;;2.72;;
74152;SDS011;62505;46.070;14.492;2023-05-08T02:01:02;3.17;;;2.88;;
74152;SDS011;62505;46.070;14.492;2023-05-08T02:03:31;3.03;;;2.72;;
74152;SDS011;62505;46.070;14.492;2023-05-08T02:06:00;3.22;;;2.88;;
74152;SDS011;62505;46.070;14.492;2023-05-08T02:08:28;2.70;;;2.50;;
74152;SDS011;62505;46.070;14.492;2023-05-08T02:10:56;3.17;;;2.90;;
74152;SDS011;62505;46.070;14.492;2023-05-08T02:13:25;2.88;;;2.67;;
74152;SDS011;62505;46.070;14.492;2023-05-08T02:15:53;3.20;;;2.83;;
74152;SDS011;62505;46.070;14.492;2023-05-08T02:18:22;3.75;;;3.00;;
74152;SDS011;62505;46.070;14.492;2023-05-08T02:20:52;2.70;;;2.50;;
74152;SDS011;62505;46.070;14.492;2023-05-08T02:23:21;3.03;;;2.70;;
74152;SDS011;62505;46.070;14.492;2023-05-08T02:25:50;4.40;;;2.83;;
74152;SDS011;62505;46.070;14.492;2023-05-08T02:28:18;3.25;;;2.95;;
74152;SDS011;62505;46.070;14.492;2023-05-08T02:30:47;2.50;;;2.30;;
74152;SDS011;62505;46.070;14.492;2023-05-08T02:33:15;3.22;;;2.92;;
74152;SDS011;62505;46.070;14.492;2023-05-08T02:35:44;3.15;;;2.65;;
74152;SDS011;62505;46.070;14.492;2023-05-08T02:38:16;2.75;;;2.28;;
74152;SDS011;62505;46.070;14.492;2023-05-08T02:40:46;2.90;;;2.60;;
74152;SDS011;62505;46.070;14.492;2023-05-08T02:43:16;2.60;;;2.40;;
74152;SDS011;62505;46.070;14.492;2023-05-08T02:45:44;2.78;;;2.58;;
74152;SDS011;62505;46.070;14.492;2023-05-08T02:48:32;2.97;;;2.67;;
74152;SDS011;62505;46.070;14.492;2023-05-08T02:51:03;2.70;;;2.50;;
74152;SDS011;62505;46.070;14.492;2023-05-08T02:53:44;2.58;;;2.38;;
74152;SDS011;62505;46.070;14.492;2023-05-08T02:56:16;3.00;;;2.70;;
74152;SDS011;62505;46.070;14.492;2023-05-08T02:58:54;2.88;;;2.63;;
74152;SDS011;62505;46.070;14.492;2023-05-08T03:01:26;2.55;;;2.35;;
74152;SDS011;62505;46.070;14.492;2023-05-08T03:03:58;4.20;;;2.55;;
74152;SDS011;62505;46.070;14.492;2023-05-08T03:06:30;3.67;;;2.60;;
74152;SDS011;62505;46.070;14.492;2023-05-08T03:09:05;2.97;;;2.78;;
74152;SDS011;62505;46.070;14.492;2023-05-08T03:11:38;2.45;;;2.25;;
74152;SDS011;62505;46.070;14.492;2023-05-08T03:14:08;3.03;;;2.72;;
74152;SDS011;62505;46.070;14.492;2023-05-08T03:16:38;2.67;;;2.47;;
74152;SDS011;62505;46.070;14.492;2023-05-08T03:19:10;2.58;;;2.38;;
74152;SDS011;62505;46.070;14.492;2023-05-08T03:21:44;3.15;;;2.85;;
74152;SDS011;62505;46.070;14.492;2023-05-08T03:24:14;2.47;;;2.28;;
74152;SDS011;62505;46.070;14.492;2023-05-08T03:26:42;2.70;;;2.50;;
74152;SDS011;62505;46.070;14.492;2023-05-08T03:29:10;2.95;;;2.63;;
74152;SDS011;62505;46.070;14.492;2023-05-08T03:31:39;3.00;;;2.60;;
74152;SDS011;62505;46.070;14.492;2023-05-08T03:34:07;2.55;;;2.35;;
74152;SDS011;62505;46.070;14.492;2023-05-08T03:36:37;3.75;;;2.70;;
74152;SDS011;62505;46.070;14.492;2023-05-08T03:39:04;2.88;;;2.58;;
74152;SDS011;62505;46.070;14.492;2023-05-08T03:41:33;2.90;;;2.58;;
74152;SDS011;62505;46.070;14.492;2023-05-08T03:44:00;2.70;;;2.50;;
74152;SDS011;62505;46.070;14.492;2023-05-08T03:46:28;2.50;;;2.30;;
74152;SDS011;62505;46.070;14.492;2023-05-08T03:48:56;3.03;;;2.75;;
74152;SDS011;62505;46.070;14.492;2023-05-08T03:51:25;3.33;;;2.65;;
74152;SDS011;62505;46.070;14.492;2023-05-08T03:53:52;3.38;;;3.00;;
74152;SDS011;62505;46.070;14.492;2023-05-08T03:56:19;2.45;;;2.25;;
74152;SDS011;62505;46.070;14.492;2023-05-08T03:58:49;3.03;;;2.65;;
74152;SDS011;62505;46.070;14.492;2023-05-08T04:01:27;3.17;;;2.78;;
74152;SDS011;62505;46.070;14.492;2023-05-08T04:04:05;2.70;;;2.45;;
74152;SDS011;62505;46.070;14.492;2023-05-08T04:06:36;2.40;;;2.20;;
74152;SDS011;62505;46.070;14.492;2023-05-08T04:09:07;3.17;;;2.80;;
74152;SDS011;62505;46.070;14.492;2023-05-08T04:11:40;3.35;;;2.22;;
74152;SDS011;62505;46.070;14.492;2023-05-08T04:14:13;2.70;;;2.47;;
74152;SDS011;62505;46.070;14.492;2023-05-08T04:16:48;2.80;;;2.60;;
74152;SDS011;62505;46.070;14.492;2023-05-08T04:19:18;3.08;;;2.78;;
74152;SDS011;62505;46.070;14.492;2023-05-08T04:21:49;3.70;;;2.25;;
74152;SDS011;62505;46.070;14.492;2023-05-08T04:24:19;2.42;;;2.22;;
74152;SDS011;62505;46.070;14.492;2023-05-08T04:26:48;3.10;;;2.45;;
74152;SDS011;62505;46.070;14.492;2023-05-08T04:29:18;3.30;;;2.83;;
74152;SDS011;62505;46.070;14.492;2023-05-08T04:31:45;2.83;;;2.63;;
74152;SDS011;62505;46.070;14.492;2023-05-08T04:34:14;2.65;;;2.45;;
74152;SDS011;62505;46.070;14.492;2023-05-08T04:36:42;3.58;;;2.38;;
74152;SDS011;62505;46.070;14.492;2023-05-08T04:39:09;4.57;;;2.80;;
74152;SDS011;62505;46.070;14.492;2023-05-08T04:41:36;3.35;;;2.65;;
74152;SDS011;62505;46.070;14.492;2023-05-08T04:44:03;4.38;;;2.90;;
74152;SDS011;62505;46.070;14.492;2023-05-08T04:46:31;12.15;;;3.15;;
74152;SDS011;62505;46.070;14.492;2023-05-08T04:48:58;6.97;;;3.28;;
74152;SDS011;62505;46.070;14.492;2023-05-08T04:51:25;6.22;;;3.60;;
74152;SDS011;62505;46.070;14.492;2023-05-08T04:53:53;7.43;;;3.28;;
74152;SDS011;62505;46.070;14.492;2023-05-08T04:56:20;9.20;;;3.13;;
74152;SDS011;62505;46.070;14.492;2023-05-08T04:58:47;5.43;;;3.33;;
74152;SDS011;62505;46.070;14.492;2023-05-08T05:01:13;7.10;;;3.40;;
74152;SDS011;62505;46.070;14.492;2023-05-08T05:03:42;7.20;;;3.45;;
74152;SDS011;62505;46.070;14.492;2023-05-08T05:06:08;3.47;;;3.00;;
74152;SDS011;62505;46.070;14.492;2023-05-08T05:08:36;9.15;;;3.47;;
74152;SDS011;62505;46.070;14.492;2023-05-08T05:11:03;8.18;;;2.83;;
74152;SDS011;62505;46.070;14.492;2023-05-08T05:13:30;4.32;;;3.05;;
74152;SDS011;62505;46.070;14.492;2023-05-08T05:15:57;6.75;;;3.15;;
74152;SDS011;62505;46.070;14.492;2023-05-08T05:18:24;6.20;;;3.33;;
74152;SDS011;62505;46.070;14.492;2023-05-08T05:20:52;6.20;;;3.75;;
74152;SDS011;62505;46.070;14.492;2023-05-08T05:23:22;4.47;;;3.38;;
74152;SDS011;62505;46.070;14.492;2023-05-08T05:25:49;5.45;;;2.83;;
74152;SDS011;62505;46.070;14.492;2023-05-08T05:28:16;5.05;;;2.67;;
74152;SDS011;62505;46.070;14.492;2023-05-08T05:30:45;4.40;;;3.05;;
74152;SDS011;62505;46.070;14.492;2023-05-08T05:33:12;4.63;;;3.10;;
74152;SDS011;62505;46.070;14.492;2023-05-08T05:35:39;6.40;;;3.75;;
74152;SDS011;62505;46.070;14.492;2023-05-08T05:38:07;3.83;;;2.95;;
74152;SDS011;62505;46.070;14.492;2023-05-08T05:40:34;7.68;;;3.40;;
74152;SDS011;62505;46.070;14.492;2023-05-08T05:43:00;4.80;;;3.10;;
74152;SDS011;62505;46.070;14.492;2023-05-08T05:45:27;4.82;;;2.85;;
74152;SDS011;62505;46.070;14.492;2023-05-08T05:47:54;4.82;;;2.92;;
74152;SDS011;62505;46.070;14.492;2023-05-08T05:50:21;5.80;;;2.83;;
74152;SDS011;62505;46.070;14.492;2023-05-08T05:52:48;5.50;;;3.75;;
74152;SDS011;62505;46.070;14.492;2023-05-08T05:55:16;3.50;;;3.05;;
74152;SDS011;62505;46.070;14.492;2023-05-08T05:57:43;5.55;;;3.28;;
74152;SDS011;62505;46.070;14.492;2023-05-08T06:00:10;5.00;;;2.72;;
74152;SDS011;62505;46.070;14.492;2023-05-08T06:02:37;4.55;;;3.38;;
74152;SDS011;62505;46.070;14.492;2023-05-08T06:05:05;4.95;;;2.95;;
74152;SDS011;62505;46.070;14.492;2023-05-08T06:07:33;6.68;;;3.40;;
74152;SDS011;62505;46.070;14.492;2023-05-08T06:10:00;5.95;;;3.15;;
74152;SDS011;62505;46.070;14.492;2023-05-08T06:12:28;4.20;;;3.20;;
74152;SDS011;62505;46.070;14.492;2023-05-08T06:14:55;6.30;;;3.72;;
74152;SDS011;62505;46.070;14.492;2023-05-08T06:17:22;7.75;;;3.70;;
74152;SDS011;62505;46.070;14.492;2023-05-08T06:19:49;3.45;;;2.88;;
74152;SDS011;62505;46.070;14.492;2023-05-08T06:22:20;6.25;;;3.30;;
74152;SDS011;62505;46.070;14.492;2023-05-08T06:24:47;8.63;;;3.70;;
74152;SDS011;62505;46.070;14.492;2023-05-08T06:27:14;6.97;;;3.63;;
74152;SDS011;62505;46.070;14.492;2023-05-08T06:29:42;5.30;;;3.47;;
74152;SDS011;62505;46.070;14.492;2023-05-08T06:32:09;8.18;;;3.50;;
74152;SDS011;62505;46.070;14.492;2023-05-08T06:34:36;6.80;;;3.70;;
74152;SDS011;62505;46.070;14.492;2023-05-08T06:37:03;5.90;;;3.65;;
74152;SDS011;62505;46.070;14.492;2023-05-08T06:39:30;6.78;;;3.72;;
74152;SDS011;62505;46.070;14.492;2023-05-08T06:41:56;5.00;;;3.28;;
74152;SDS011;62505;46.070;14.492;2023-05-08T06:44:23;6.10;;;3.45;;
74152;SDS011;62505;46.070;14.492;2023-05-08T06:46:52;7.40;;;3.50;;
74152;SDS011;62505;46.070;14.492;2023-05-08T06:49:19;8.55;;;3.50;;
74152;SDS011;62505;46.070;14.492;2023-05-08T06:51:46;4.82;;;3.10;;
74152;SDS011;62505;46.070;14.492;2023-05-08T06:54:13;6.82;;;3.55;;
74152;SDS011;62505;46.070;14.492;2023-05-08T06:56:41;4.47;;;3.17;;
74152;SDS011;62505;46.070;14.492;2023-05-08T06:59:08;7.35;;;3.45;;
74152;SDS011;62505;46.070;14.492;2023-05-08T07:01:35;6.05;;;3.67;;
74152;SDS011;62505;46.070;14.492;2023-05-08T07:04:03;8.82;;;3.58;;
74152;SDS011;62505;46.070;14.492;2023-05-08T07:06:30;9.00;;;3.70;;
74152;SDS011;62505;46.070;14.492;2023-05-08T07:08:57;8.18;;;3.15;;
74152;SDS011;62505;46.070;14.492;2023-05-08T07:11:24;7.90;;;3.30;;
74152;SDS011;62505;46.070;14.492;2023-05-08T07:13:51;7.00;;;3.30;;
74152;SDS011;62505;46.070;14.492;2023-05-08T07:16:18;7.03;;;3.90;;
74152;SDS011;62505;46.070;14.492;2023-05-08T07:18:45;4.40;;;3.17;;
74152;SDS011;62505;46.070;14.492;2023-05-08T07:21:13;6.97;;;3.88;;
74152;SDS011;62505;46.070;14.492;2023-05-08T07:23:42;4.72;;;3.40;;
74152;SDS011;62505;46.070;14.492;2023-05-08T07:26:08;4.65;;;2.95;;
74152;SDS011;62505;46.070;14.492;2023-05-08T07:28:35;7.97;;;3.22;;
74152;SDS011;62505;46.070;14.492;2023-05-08T07:31:03;7.30;;;3.72;;
74152;SDS011;62505;46.070;14.492;2023-05-08T07:33:31;7.25;;;3.22;;
74152;SDS011;62505;46.070;14.492;2023-05-08T07:35:57;11.13;;;3.80;;
74152;SDS011;62505;46.070;14.492;2023-05-08T07:38:26;5.57;;;3.63;;
74152;SDS011;62505;46.070;14.492;2023-05-08T07:40:53;5.45;;;3.30;;
74152;SDS011;62505;46.070;14.492;2023-05-08T07:43:21;6.93;;;3.67;;
74152;SDS011;62505;46.070;14.492;2023-05-08T07:45:48;7.35;;;3.47;;
74152;SDS011;62505;46.070;14.492;2023-05-08T07:48:16;4.88;;;2.92;;
74152;SDS011;62505;46.070;14.492;2023-05-08T07:50:42;6.75;;;3.03;;
74152;SDS011;62505;46.070;14.492;2023-05-08T07:53:09;6.35;;;3.40;;
74152;SDS011;62505;46.070;14.492;2023-05-08T07:55:38;6.22;;;3.10;;
74152;SDS011;62505;46.070;14.492;2023-05-08T07:58:04;7.75;;;3.58;;
74152;SDS011;62505;46.070;14.492;2023-05-08T08:00:31;7.40;;;3.22;;
74152;SDS011;62505;46.070;14.492;2023-05-08T08:02:58;6.22;;;3.72;;
74152;SDS011;62505;46.070;14.492;2023-05-08T08:05:26;6.50;;;3.47;;
74152;SDS011;62505;46.070;14.492;2023-05-08T08:07:53;6.63;;;3.40;;
74152;SDS011;62505;46.070;14.492;2023-05-08T08:10:20;6.78;;;3.72;;
74152;SDS011;62505;46.070;14.492;2023-05-08T08:12:48;6.25;;;3.85;;
74152;SDS011;62505;46.070;14.492;2023-05-08T08:15:15;8.70;;;3.90;;
74152;SDS011;62505;46.070;14.492;2023-05-08T08:17:42;7.03;;;3.75;;
74152;SDS011;62505;46.070;14.492;2023-05-08T08:20:09;7.10;;;3.67;;
74152;SDS011;62505;46.070;14.492;2023-05-08T08:22:36;7.45;;;3.58;;
74152;SDS011;62505;46.070;14.492;2023-05-08T08:25:04;8.02;;;3.10;;
74152;SDS011;62505;46.070;14.492;2023-05-08T08:27:31;6.95;;;3.33;;
74152;SDS011;62505;46.070;14.492;2023-05-08T08:29:59;7.13;;;3.25;;
74152;SDS011;62505;46.070;14.492;2023-05-08T08:32:26;7.05;;;3.35;;
74152;SDS011;62505;46.070;14.492;2023-05-08T08:34:53;7.35;;;3.50;;
74152;SDS011;62505;46.070;14.492;2023-05-08T08:37:20;6.68;;;3.30;;
74152;SDS011;62505;46.070;14.492;2023-05-08T08:39:48;6.00;;;3.28;;
74152;SDS011;62505;46.070;14.492;2023-05-08T08:42:15;8.50;;;3.20;;
74152;SDS011;62505;46.070;14.492;2023-05-08T08:44:41;7.05;;;3.20;;
74152;SDS011;62505;46.070;14.492;2023-05-08T08:47:10;5.55;;;3.28;;
74152;SDS011;62505;46.070;14.492;2023-05-08T08:49:40;4.15;;;3.15;;
74152;SDS011;62505;46.070;14.492;2023-05-08T08:52:10;3.83;;;3.03;;
74152;SDS011;62505;46.070;14.492;2023-05-08T08:54:42;4.53;;;3.10;;
74152;SDS011;62505;46.070;14.492;2023-05-08T08:57:10;6.80;;;3.28;;
74152;SDS011;62505;46.070;14.492;2023-05-08T08:59:38;5.82;;;3.22;;
74152;SDS011;62505;46.070;14.492;2023-05-08T09:02:10;7.32;;;3.47;;
74152;SDS011;62505;46.070;14.492;2023-05-08T09:04:41;4.13;;;2.85;;
74152;SDS011;62505;46.070;14.492;2023-05-08T09:07:08;4.53;;;3.38;;
74152;SDS011;62505;46.070;14.492;2023-05-08T09:09:38;9.80;;;3.17;;
74152;SDS011;62505;46.070;14.492;2023-05-08T09:12:06;4.93;;;2.95;;
74152;SDS011;62505;46.070;14.492;2023-05-08T09:14:33;4.97;;;3.25;;
74152;SDS011;62505;46.070;14.492;2023-05-08T09:17:00;3.80;;;2.92;;
74152;SDS011;62505;46.070;14.492;2023-05-08T09:19:28;4.60;;;3.33;;
74152;SDS011;62505;46.070;14.492;2023-05-08T09:21:57;4.43;;;3.10;;
74152;SDS011;62505;46.070;14.492;2023-05-08T09:24:25;6.75;;;3.72;;
74152;SDS011;62505;46.070;14.492;2023-05-08T09:26:52;5.78;;;3.25;;
74152;SDS011;62505;46.070;14.492;2023-05-08T09:29:20;5.68;;;3.20;;
74152;SDS011;62505;46.070;14.492;2023-05-08T09:31:47;5.95;;;3.40;;
74152;SDS011;62505;46.070;14.492;2023-05-08T09:34:22;6.35;;;2.95;;
74152;SDS011;62505;46.070;14.492;2023-05-08T09:36:52;10.30;;;3.53;;
74152;SDS011;62505;46.070;14.492;2023-05-08T09:39:20;6.50;;;3.85;;
74152;SDS011;62505;46.070;14.492;2023-05-08T09:41:55;6.43;;;3.10;;
74152;SDS011;62505;46.070;14.492;2023-05-08T09:44:23;6.50;;;3.58;;
74152;SDS011;62505;46.070;14.492;2023-05-08T09:46:50;6.10;;;3.05;;
74152;SDS011;62505;46.070;14.492;2023-05-08T09:49:18;7.45;;;3.50;;
74152;SDS011;62505;46.070;14.492;2023-05-08T09:51:50;5.15;;;3.20;;
74152;SDS011;62505;46.070;14.492;2023-05-08T09:54:19;4.47;;;3.55;;
74152;SDS011;62505;46.070;14.492;2023-05-08T09:56:46;5.70;;;3.40;;
74152;SDS011;62505;46.070;14.492;2023-05-08T09:59:22;7.15;;;3.58;;
74152;SDS011;62505;46.070;14.492;2023-05-08T10:01:51;7.43;;;3.83;;
74152;SDS011;62505;46.070;14.492;2023-05-08T10:04:29;5.97;;;3.47;;
74152;SDS011;62505;46.070;14.492;2023-05-08T10:06:57;7.13;;;4.00;;
74152;SDS011;62505;46.070;14.492;2023-05-08T10:09:25;5.72;;;3.40;;
74152;SDS011;62505;46.070;14.492;2023-05-08T10:11:53;6.10;;;3.67;;
74152;SDS011;62505;46.070;14.492;2023-05-08T10:14:20;6.10;;;3.70;;
74152;SDS011;62505;46.070;14.492;2023-05-08T10:16:49;4.18;;;3.53;;
74152;SDS011;62505;46.070;14.492;2023-05-08T10:19:17;7.28;;;3.70;;
74152;SDS011;62505;46.070;14.492;2023-05-08T10:21:46;6.32;;;4.15;;
74152;SDS011;62505;46.070;14.492;2023-05-08T10:24:15;4.85;;;3.35;;
74152;SDS011;62505;46.070;14.492;2023-05-08T10:26:47;5.60;;;4.03;;
74152;SDS011;62505;46.070;14.492;2023-05-08T10:29:20;5.30;;;3.67;;
74152;SDS011;62505;46.070;14.492;2023-05-08T10:31:58;4.65;;;3.60;;
74152;SDS011;62505;46.070;14.492;2023-05-08T10:34:25;4.72;;;3.70;;
74152;SDS011;62505;46.070;14.492;2023-05-08T10:36:53;4.60;;;3.28;;
74152;SDS011;62505;46.070;14.492;2023-05-08T10:39:20;4.60;;;3.55;;
74152;SDS011;62505;46.070;14.492;2023-05-08T10:41:50;6.90;;;3.60;;
74152;SDS011;62505;46.070;14.492;2023-05-08T10:44:17;4.88;;;3.45;;
74152;SDS011;62505;46.070;14.492;2023-05-08T10:46:47;5.70;;;3.70;;
74152;SDS011;62505;46.070;14.492;2023-05-08T10:49:19;5.90;;;3.67;;
74152;SDS011;62505;46.070;14.492;2023-05-08T10:51:56;7.57;;;3.67;;
74152;SDS011;62505;46.070;14.492;2023-05-08T10:54:33;7.82;;;3.65;;
74152;SDS011;62505;46.070;14.492;2023-05-08T10:57:10;4.65;;;3.28;;
74152;SDS011;62505;46.070;14.492;2023-05-08T10:59:37;12.77;;;3.83;;
74152;SDS011;62505;46.070;14.492;2023-05-08T11:02:09;7.50;;;3.60;;
74152;SDS011;62505;46.070;14.492;2023-05-08T11:04:36;6.40;;;3.92;;
74152;SDS011;62505;46.070;14.492;2023-05-08T11:07:03;6.93;;;3.25;;
74152;SDS011;62505;46.070;14.492;2023-05-08T11:09:44;5.93;;;3.97;;
74152;SDS011;62505;46.070;14.492;2023-05-08T11:12:22;6.10;;;3.65;;
74152;SDS011;62505;46.070;14.492;2023-05-08T11:14:56;8.02;;;3.60;;
74152;SDS011;62505;46.070;14.492;2023-05-08T11:17:25;8.07;;;3.92;;
74152;SDS011;62505;46.070;14.492;2023-05-08T11:19:56;6.55;;;3.90;;
74152;SDS011;62505;46.070;14.492;2023-05-08T11:22:25;7.22;;;3.72;;
74152;SDS011;62505;46.070;14.492;2023-05-08T11:24:54;6.20;;;3.50;;
74152;SDS011;62505;46.070;14.492;2023-05-08T11:27:33;4.65;;;3.47;;
74152;SDS011;62505;46.070;14.492;2023-05-08T11:30:34;6.70;;;3.72;;
74152;SDS011;62505;46.070;14.492;2023-05-08T11:33:12;4.78;;;3.50;;
74152;SDS011;62505;46.070;14.492;2023-05-08T11:35:43;6.03;;;3.70;;
74152;SDS011;62505;46.070;14.492;2023-05-08T11:38:18;4.80;;;3.70;;
74152;SDS011;62505;46.070;14.492;2023-05-08T11:40:53;14.25;;;3.67;;
74152;SDS011;62505;46.070;14.492;2023-05-08T11:46:39;6.75;;;4.07;;
74152;SDS011;62505;46.070;14.492;2023-05-08T11:49:11;5.25;;;3.60;;
74152;SDS011;62505;46.070;14.492;2023-05-08T11:51:40;5.22;;;3.80;;
74152;SDS011;62505;46.070;14.492;2023-05-08T11:54:13;7.60;;;3.90;;
74152;SDS011;62505;46.070;14.492;2023-05-08T11:56:41;8.88;;;4.30;;
74152;SDS011;62505;46.070;14.492;2023-05-08T11:59:09;5.95;;;3.65;;
74152;SDS011;62505;46.070;14.492;2023-05-08T12:01:37;6.18;;;4.10;;
74152;SDS011;62505;46.070;14.492;2023-05-08T12:04:05;5.43;;;3.78;;
74152;SDS011;62505;46.070;14.492;2023-05-08T12:06:33;8.00;;;3.75;;
74152;SDS011;62505;46.070;14.492;2023-05-08T12:09:01;7.80;;;3.97;;
74152;SDS011;62505;46.070;14.492;2023-05-08T12:11:34;7.75;;;3.92;;
74152;SDS011;62505;46.070;14.492;2023-05-08T12:14:01;5.80;;;3.67;;
74152;SDS011;62505;46.070;14.492;2023-05-08T12:16:33;6.03;;;3.50;;
74152;SDS011;62505;46.070;14.492;2023-05-08T12:19:00;9.40;;;4.03;;
74152;SDS011;62505;46.070;14.492;2023-05-08T12:21:27;4.68;;;3.50;;
74152;SDS011;62505;46.070;14.492;2023-05-08T12:23:54;7.68;;;4.03;;
74152;SDS011;62505;46.070;14.492;2023-05-08T12:26:21;6.40;;;3.50;;
74152;SDS011;62505;46.070;14.492;2023-05-08T12:28:53;7.72;;;3.58;;
74152;SDS011;62505;46.070;14.492;2023-05-08T12:31:20;6.63;;;3.85;;
74152;SDS011;62505;46.070;14.492;2023-05-08T12:33:49;7.60;;;3.92;;
74152;SDS011;62505;46.070;14.492;2023-05-08T12:36:17;6.20;;;3.33;;
74152;SDS011;62505;46.070;14.492;2023-05-08T12:38:44;5.25;;;3.75;;
74152;SDS011;62505;46.070;14.492;2023-05-08T12:41:11;5.30;;;3.90;;
74152;SDS011;62505;46.070;14.492;2023-05-08T12:43:40;5.43;;;3.50;;
74152;SDS011;62505;46.070;14.492;2023-05-08T12:46:13;5.07;;;3.58;;
74152;SDS011;62505;46.070;14.492;2023-05-08T12:48:41;8.85;;;3.50;;
74152;SDS011;62505;46.070;14.492;2023-05-08T12:51:10;5.13;;;3.42;;
74152;SDS011;62505;46.070;14.492;2023-05-08T12:53:37;4.97;;;3.60;;
74152;SDS011;62505;46.070;14.492;2023-05-08T12:56:04;6.28;;;3.67;;
74152;SDS011;62505;46.070;14.492;2023-05-08T12:58:32;6.45;;;3.78;;
74152;SDS011;62505;46.070;14.492;2023-05-08T13:01:03;6.20;;;4.03;;
74152;SDS011;62505;46.070;14.492;2023-05-08T13:03:37;5.95;;;3.22;;
74152;SDS011;62505;46.070;14.492;2023-05-08T13:06:04;5.65;;;3.53;;
74152;SDS011;62505;46.070;14.492;2023-05-08T13:08:33;5.30;;;3.75;;
74152;SDS011;62505;46.070;14.492;2023-05-08T13:11:02;4.60;;;3.50;;
74152;SDS011;62505;46.070;14.492;2023-05-08T13:13:30;4.32;;;3.05;;
74152;SDS011;62505;46.070;14.492;2023-05-08T13:16:00;4.57;;;3.30;;
74152;SDS011;62505;46.070;14.492;2023-05-08T13:18:28;4.95;;;3.50;;
74152;SDS011;62505;46.070;14.492;2023-05-08T13:20:55;4.65;;;3.42;;
74152;SDS011;62505;46.070;14.492;2023-05-08T13:23:22;4.70;;;3.60;;
74152;SDS011;62505;46.070;14.492;2023-05-08T13:25:51;4.15;;;3.53;;
74152;SDS011;62505;46.070;14.492;2023-05-08T13:28:18;7.32;;;3.60;;
74152;SDS011;62505;46.070;14.492;2023-05-08T13:30:44;4.70;;;3.30;;
74152;SDS011;62505;46.070;14.492;2023-05-08T13:33:11;4.93;;;3.65;;
74152;SDS011;62505;46.070;14.492;2023-05-08T13:35:38;5.72;;;3.42;;
74152;SDS011;62505;46.070;14.492;2023-05-08T13:38:05;4.47;;;3.70;;
74152;SDS011;62505;46.070;14.492;2023-05-08T13:40:32;5.18;;;3.45;;
74152;SDS011;62505;46.070;14.492;2023-05-08T13:43:00;4.35;;;3.42;;
74152;SDS011;62505;46.070;14.492;2023-05-08T13:45:27;5.63;;;3.45;;
74152;SDS011;62505;46.070;14.492;2023-05-08T13:47:54;5.88;;;3.83;;
74152;SDS011;62505;46.070;14.492;2023-05-08T13:50:21;4.00;;;3.15;;
74152;SDS011;62505;46.070;14.492;2023-05-08T13:52:48;3.78;;;3.33;;
74152;SDS011;62505;46.070;14.492;2023-05-08T13:55:15;5.68;;;3.97;;
74152;SDS011;62505;46.070;14.492;2023-05-08T13:57:45;13.20;;;4.10;;
74152;SDS011;62505;46.070;14.492;2023-05-08T14:00:14;3.47;;;3.15;;
74152;SDS011;62505;46.070;14.492;2023-05-08T14:02:42;5.45;;;3.58;;
74152;SDS011;62505;46.070;14.492;2023-05-08T14:05:08;3.85;;;3.28;;
74152;SDS011;62505;46.070;14.492;2023-05-08T14:07:35;3.88;;;3.40;;
74152;SDS011;62505;46.070;14.492;2023-05-08T14:10:02;4.00;;;3.28;;
74152;SDS011;62505;46.070;14.492;2023-05-08T14:12:30;6.20;;;3.47;;
74152;SDS011;62505;46.070;14.492;2023-05-08T14:15:00;6.05;;;3.50;;
74152;SDS011;62505;46.070;14.492;2023-05-08T14:17:28;3.38;;;2.92;;
74152;SDS011;62505;46.070;14.492;2023-05-08T14:19:55;5.38;;;3.25;;
74152;SDS011;62505;46.070;14.492;2023-05-08T14:22:22;4.97;;;3.45;;
74152;SDS011;62505;46.070;14.492;2023-05-08T14:24:49;5.15;;;3.42;;
74152;SDS011;62505;46.070;14.492;2023-05-08T14:27:17;8.05;;;3.97;;
74152;SDS011;62505;46.070;14.492;2023-05-08T14:29:43;5.78;;;3.33;;
74152;SDS011;62505;46.070;14.492;2023-05-08T14:32:10;7.43;;;3.85;;
74152;SDS011;62505;46.070;14.492;2023-05-08T14:34:38;5.53;;;3.47;;
74152;SDS011;62505;46.070;14.492;2023-05-08T14:37:05;5.63;;;3.70;;
74152;SDS011;62505;46.070;14.492;2023-05-08T14:39:35;5.38;;;3.10;;
74152;SDS011;62505;46.070;14.492;2023-05-08T14:42:02;6.82;;;3.25;;
74152;SDS011;62505;46.070;14.492;2023-05-08T14:44:29;6.32;;;3.55;;
74152;SDS011;62505;46.070;14.492;2023-05-08T14:46:55;6.10;;;3.55;;
74152;SDS011;62505;46.070;14.492;2023-05-08T14:49:22;10.68;;;3.72;;